sensor_id;sensor_type;location;lat;lon;timestamp;P1;durP1;ratioP1;P2;durP2;ratioP2
20173;SDS011;10246;50.620;7.232;2022-10-04T00:00:50;7.27;;;3.53;;
20173;SDS011;10246;50.620;7.232;2022-10-04T00:03:26;6.60;;;3.13;;
20173;SDS011;10246;50.620;7.232;2022-10-04T00:05:56;8.00;;;4.10;;
20173;SDS011;10246;50.620;7.232;2022-10-04T00:08:26;5.10;;;3.47;;
20173;SDS011;10246;50.620;7.232;2022-10-04T00:11:00;6.33;;;3.40;;
20173;SDS011;10246;50.620;7.232;2022-10-04T00:13:32;4.87;;;3.23;;
20173;SDS011;10246;50.620;7.232;2022-10-04T00:16:02;5.10;;;3.40;;
20173;SDS011;10246;50.620;7.232;2022-10-04T00:18:31;4.53;;;3.30;;
20173;SDS011;10246;50.620;7.232;2022-10-04T00:21:04;6.87;;;3.53;;
20173;SDS011;10246;50.620;7.232;2022-10-04T00:23:42;8.40;;;3.43;;
20173;SDS011;10246;50.620;7.232;2022-10-04T00:27:08;5.97;;;3.10;;
20173;SDS011;10246;50.620;7.232;2022-10-04T00:29:32;3.60;;;2.50;;
20173;SDS011;10246;50.620;7.232;2022-10-04T00:34:52;3.93;;;2.70;;
20173;SDS011;10246;50.620;7.232;2022-10-04T00:37:20;4.40;;;2.90;;
20173;SDS011;10246;50.620;7.232;2022-10-04T00:39:55;6.67;;;2.93;;
20173;SDS011;10246;50.620;7.232;2022-10-04T00:42:30;4.83;;;2.90;;
20173;SDS011;10246;50.620;7.232;2022-10-04T00:45:12;5.73;;;2.67;;
20173;SDS011;10246;50.620;7.232;2022-10-04T00:47:57;4.73;;;2.77;;
20173;SDS011;10246;50.620;7.232;2022-10-04T00:50:46;5.20;;;3.17;;
20173;SDS011;10246;50.620;7.232;2022-10-04T00:53:19;5.27;;;2.90;;
20173;SDS011;10246;50.620;7.232;2022-10-04T00:55:51;4.47;;;2.93;;
20173;SDS011;10246;50.620;7.232;2022-10-04T00:58:21;5.57;;;3.70;;
20173;SDS011;10246;50.620;7.232;2022-10-04T01:00:51;6.63;;;3.27;;
20173;SDS011;10246;50.620;7.232;2022-10-04T01:03:21;5.43;;;3.83;;
20173;SDS011;10246;50.620;7.232;2022-10-04T01:05:55;6.60;;;3.63;;
20173;SDS011;10246;50.620;7.232;2022-10-04T01:08:26;7.77;;;4.63;;
20173;SDS011;10246;50.620;7.232;2022-10-04T01:10:57;6.10;;;3.80;;
20173;SDS011;10246;50.620;7.232;2022-10-04T01:13:27;6.33;;;3.53;;
20173;SDS011;10246;50.620;7.232;2022-10-04T01:15:58;4.57;;;3.47;;
20173;SDS011;10246;50.620;7.232;2022-10-04T01:18:30;10.67;;;3.80;;
20173;SDS011;10246;50.620;7.232;2022-10-04T01:20:59;6.70;;;3.47;;
20173;SDS011;10246;50.620;7.232;2022-10-04T01:23:38;4.07;;;3.30;;
20173;SDS011;10246;50.620;7.232;2022-10-04T01:29:06;6.90;;;4.43;;
20173;SDS011;10246;50.620;7.232;2022-10-04T01:31:38;7.63;;;4.77;;
20173;SDS011;10246;50.620;7.232;2022-10-04T01:34:07;7.17;;;4.57;;
20173;SDS011;10246;50.620;7.232;2022-10-04T01:36:37;9.10;;;4.87;;
20173;SDS011;10246;50.620;7.232;2022-10-04T01:39:05;8.17;;;4.33;;
20173;SDS011;10246;50.620;7.232;2022-10-04T01:41:36;6.43;;;3.87;;
20173;SDS011;10246;50.620;7.232;2022-10-04T01:44:09;6.97;;;3.43;;
20173;SDS011;10246;50.620;7.232;2022-10-04T01:46:42;5.93;;;3.23;;
20173;SDS011;10246;50.620;7.232;2022-10-04T01:49:10;4.93;;;3.70;;
20173;SDS011;10246;50.620;7.232;2022-10-04T01:51:42;8.23;;;3.93;;
20173;SDS011;10246;50.620;7.232;2022-10-04T01:54:16;7.73;;;4.40;;
20173;SDS011;10246;50.620;7.232;2022-10-04T01:56:46;9.33;;;4.27;;
20173;SDS011;10246;50.620;7.232;2022-10-04T01:59:18;7.40;;;3.83;;
20173;SDS011;10246;50.620;7.232;2022-10-04T02:01:49;6.40;;;4.27;;
20173;SDS011;10246;50.620;7.232;2022-10-04T02:04:20;7.37;;;4.97;;
20173;SDS011;10246;50.620;7.232;2022-10-04T02:06:52;8.40;;;4.40;;
20173;SDS011;10246;50.620;7.232;2022-10-04T02:09:24;11.63;;;5.07;;
20173;SDS011;10246;50.620;7.232;2022-10-04T02:11:53;9.17;;;4.60;;
20173;SDS011;10246;50.620;7.232;2022-10-04T02:14:22;8.27;;;5.43;;
20173;SDS011;10246;50.620;7.232;2022-10-04T02:16:51;10.33;;;5.73;;
20173;SDS011;10246;50.620;7.232;2022-10-04T02:19:18;9.70;;;5.20;;
20173;SDS011;10246;50.620;7.232;2022-10-04T02:21:48;7.47;;;4.97;;
20173;SDS011;10246;50.620;7.232;2022-10-04T02:24:16;8.77;;;5.57;;
20173;SDS011;10246;50.620;7.232;2022-10-04T02:26:49;7.97;;;5.30;;
20173;SDS011;10246;50.620;7.232;2022-10-04T02:29:16;7.00;;;5.10;;
20173;SDS011;10246;50.620;7.232;2022-10-04T02:31:44;8.50;;;5.10;;
20173;SDS011;10246;50.620;7.232;2022-10-04T02:34:30;7.13;;;5.37;;
20173;SDS011;10246;50.620;7.232;2022-10-04T02:36:56;7.70;;;5.73;;
20173;SDS011;10246;50.620;7.232;2022-10-04T02:39:28;8.53;;;6.03;;
20173;SDS011;10246;50.620;7.232;2022-10-04T02:42:01;8.67;;;6.17;;
20173;SDS011;10246;50.620;7.232;2022-10-04T02:44:34;11.20;;;6.90;;
20173;SDS011;10246;50.620;7.232;2022-10-04T02:47:08;14.07;;;6.80;;
20173;SDS011;10246;50.620;7.232;2022-10-04T02:49:42;10.70;;;6.83;;
20173;SDS011;10246;50.620;7.232;2022-10-04T02:52:12;9.33;;;6.80;;
20173;SDS011;10246;50.620;7.232;2022-10-04T02:54:45;10.50;;;7.30;;
20173;SDS011;10246;50.620;7.232;2022-10-04T02:57:21;11.97;;;7.50;;
20173;SDS011;10246;50.620;7.232;2022-10-04T02:59:49;12.10;;;7.43;;
20173;SDS011;10246;50.620;7.232;2022-10-04T03:02:20;13.10;;;8.07;;
20173;SDS011;10246;50.620;7.232;2022-10-04T03:04:49;12.07;;;7.63;;
20173;SDS011;10246;50.620;7.232;2022-10-04T03:07:17;13.57;;;7.93;;
20173;SDS011;10246;50.620;7.232;2022-10-04T03:09:45;12.97;;;7.80;;
20173;SDS011;10246;50.620;7.232;2022-10-04T03:12:12;12.70;;;8.67;;
20173;SDS011;10246;50.620;7.232;2022-10-04T03:14:41;15.43;;;8.50;;
20173;SDS011;10246;50.620;7.232;2022-10-04T03:17:09;13.13;;;8.20;;
20173;SDS011;10246;50.620;7.232;2022-10-04T03:19:39;13.57;;;7.77;;
20173;SDS011;10246;50.620;7.232;2022-10-04T03:22:06;12.27;;;8.70;;
20173;SDS011;10246;50.620;7.232;2022-10-04T03:24:35;11.27;;;7.47;;
20173;SDS011;10246;50.620;7.232;2022-10-04T03:27:08;12.67;;;8.43;;
20173;SDS011;10246;50.620;7.232;2022-10-04T03:29:42;14.53;;;8.10;;
20173;SDS011;10246;50.620;7.232;2022-10-04T03:32:09;12.23;;;7.47;;
20173;SDS011;10246;50.620;7.232;2022-10-04T03:34:40;11.70;;;7.93;;
20173;SDS011;10246;50.620;7.232;2022-10-04T03:37:13;12.43;;;7.43;;
20173;SDS011;10246;50.620;7.232;2022-10-04T03:39:43;12.13;;;8.03;;
20173;SDS011;10246;50.620;7.232;2022-10-04T03:42:12;14.90;;;7.90;;
20173;SDS011;10246;50.620;7.232;2022-10-04T03:44:43;13.67;;;9.07;;
20173;SDS011;10246;50.620;7.232;2022-10-04T03:47:12;14.17;;;8.53;;
20173;SDS011;10246;50.620;7.232;2022-10-04T03:49:42;11.90;;;8.07;;
20173;SDS011;10246;50.620;7.232;2022-10-04T03:52:14;11.70;;;7.90;;
20173;SDS011;10246;50.620;7.232;2022-10-04T03:54:45;13.23;;;8.17;;
20173;SDS011;10246;50.620;7.232;2022-10-04T03:57:13;14.47;;;8.27;;
20173;SDS011;10246;50.620;7.232;2022-10-04T03:59:41;14.03;;;8.33;;
20173;SDS011;10246;50.620;7.232;2022-10-04T04:02:10;12.30;;;8.10;;
20173;SDS011;10246;50.620;7.232;2022-10-04T04:04:44;12.30;;;7.60;;
20173;SDS011;10246;50.620;7.232;2022-10-04T04:07:22;14.00;;;8.03;;
20173;SDS011;10246;50.620;7.232;2022-10-04T04:09:55;12.30;;;8.00;;
20173;SDS011;10246;50.620;7.232;2022-10-04T04:12:30;13.23;;;7.70;;
20173;SDS011;10246;50.620;7.232;2022-10-04T04:15:04;12.73;;;7.87;;
20173;SDS011;10246;50.620;7.232;2022-10-04T04:17:36;11.77;;;7.37;;
20173;SDS011;10246;50.620;7.232;2022-10-04T04:20:11;12.93;;;7.03;;
20173;SDS011;10246;50.620;7.232;2022-10-04T04:22:44;12.27;;;8.27;;
20173;SDS011;10246;50.620;7.232;2022-10-04T04:25:16;11.30;;;7.30;;
20173;SDS011;10246;50.620;7.232;2022-10-04T04:27:47;12.20;;;6.97;;
20173;SDS011;10246;50.620;7.232;2022-10-04T04:30:17;9.50;;;6.73;;
20173;SDS011;10246;50.620;7.232;2022-10-04T04:32:45;8.77;;;6.57;;
20173;SDS011;10246;50.620;7.232;2022-10-04T04:35:20;9.03;;;6.37;;
20173;SDS011;10246;50.620;7.232;2022-10-04T04:38:00;9.90;;;6.60;;
20173;SDS011;10246;50.620;7.232;2022-10-04T04:40:29;9.53;;;6.10;;
20173;SDS011;10246;50.620;7.232;2022-10-04T04:42:56;10.60;;;6.43;;
20173;SDS011;10246;50.620;7.232;2022-10-04T04:45:27;9.97;;;6.60;;
20173;SDS011;10246;50.620;7.232;2022-10-04T04:47:56;9.87;;;6.23;;
20173;SDS011;10246;50.620;7.232;2022-10-04T04:50:24;9.73;;;6.60;;
20173;SDS011;10246;50.620;7.232;2022-10-04T04:52:56;8.43;;;6.27;;
20173;SDS011;10246;50.620;7.232;2022-10-04T04:55:29;9.37;;;5.97;;
20173;SDS011;10246;50.620;7.232;2022-10-04T04:57:59;9.60;;;6.57;;
20173;SDS011;10246;50.620;7.232;2022-10-04T05:00:29;12.23;;;8.07;;
20173;SDS011;10246;50.620;7.232;2022-10-04T05:02:58;11.73;;;8.03;;
20173;SDS011;10246;50.620;7.232;2022-10-04T05:05:27;10.50;;;8.10;;
20173;SDS011;10246;50.620;7.232;2022-10-04T05:08:12;11.57;;;8.70;;
20173;SDS011;10246;50.620;7.232;2022-10-04T05:10:41;12.17;;;8.57;;
20173;SDS011;10246;50.620;7.232;2022-10-04T05:13:10;11.30;;;7.70;;
20173;SDS011;10246;50.620;7.232;2022-10-04T05:15:40;8.97;;;6.40;;
20173;SDS011;10246;50.620;7.232;2022-10-04T05:18:12;9.37;;;5.80;;
20173;SDS011;10246;50.620;7.232;2022-10-04T05:20:45;7.70;;;5.67;;
20173;SDS011;10246;50.620;7.232;2022-10-04T05:23:15;8.47;;;6.07;;
20173;SDS011;10246;50.620;7.232;2022-10-04T05:25:42;8.33;;;6.30;;
20173;SDS011;10246;50.620;7.232;2022-10-04T05:28:09;8.57;;;5.47;;
20173;SDS011;10246;50.620;7.232;2022-10-04T05:30:42;7.40;;;5.70;;
20173;SDS011;10246;50.620;7.232;2022-10-04T05:33:18;9.63;;;5.13;;
20173;SDS011;10246;50.620;7.232;2022-10-04T05:35:53;7.40;;;5.27;;
20173;SDS011;10246;50.620;7.232;2022-10-04T05:38:36;7.70;;;5.33;;
20173;SDS011;10246;50.620;7.232;2022-10-04T05:41:08;7.93;;;5.57;;
20173;SDS011;10246;50.620;7.232;2022-10-04T05:43:43;16.00;;;10.63;;
20173;SDS011;10246;50.620;7.232;2022-10-04T05:46:14;13.80;;;9.73;;
20173;SDS011;10246;50.620;7.232;2022-10-04T05:48:45;13.20;;;9.83;;
20173;SDS011;10246;50.620;7.232;2022-10-04T05:51:17;11.57;;;8.00;;
20173;SDS011;10246;50.620;7.232;2022-10-04T05:53:45;10.17;;;7.43;;
20173;SDS011;10246;50.620;7.232;2022-10-04T05:56:18;9.20;;;6.77;;
20173;SDS011;10246;50.620;7.232;2022-10-04T05:59:10;7.17;;;5.90;;
20173;SDS011;10246;50.620;7.232;2022-10-04T06:01:51;7.93;;;5.83;;
20173;SDS011;10246;50.620;7.232;2022-10-04T06:04:36;7.10;;;5.07;;
20173;SDS011;10246;50.620;7.232;2022-10-04T06:07:13;7.17;;;5.00;;
20173;SDS011;10246;50.620;7.232;2022-10-04T06:09:55;7.63;;;5.13;;
20173;SDS011;10246;50.620;7.232;2022-10-04T06:12:35;7.53;;;5.50;;
20173;SDS011;10246;50.620;7.232;2022-10-04T06:15:24;9.73;;;6.73;;
20173;SDS011;10246;50.620;7.232;2022-10-04T06:18:21;8.17;;;5.87;;
20173;SDS011;10246;50.620;7.232;2022-10-04T06:21:19;7.63;;;5.67;;
20173;SDS011;10246;50.620;7.232;2022-10-04T06:23:50;6.77;;;5.17;;
20173;SDS011;10246;50.620;7.232;2022-10-04T06:26:23;8.23;;;5.80;;
20173;SDS011;10246;50.620;7.232;2022-10-04T06:28:53;7.87;;;5.47;;
20173;SDS011;10246;50.620;7.232;2022-10-04T06:31:27;6.27;;;5.27;;
20173;SDS011;10246;50.620;7.232;2022-10-04T06:37:07;8.13;;;5.37;;
20173;SDS011;10246;50.620;7.232;2022-10-04T06:39:46;8.10;;;5.37;;
20173;SDS011;10246;50.620;7.232;2022-10-04T06:42:34;6.73;;;5.10;;
20173;SDS011;10246;50.620;7.232;2022-10-04T06:45:18;5.20;;;4.60;;
20173;SDS011;10246;50.620;7.232;2022-10-04T06:48:00;6.33;;;5.20;;
20173;SDS011;10246;50.620;7.232;2022-10-04T06:50:47;9.50;;;5.17;;
20173;SDS011;10246;50.620;7.232;2022-10-04T06:53:19;6.83;;;5.03;;
20173;SDS011;10246;50.620;7.232;2022-10-04T06:56:03;9.03;;;5.77;;
20173;SDS011;10246;50.620;7.232;2022-10-04T06:59:06;9.73;;;6.03;;
20173;SDS011;10246;50.620;7.232;2022-10-04T07:01:54;7.07;;;4.63;;
20173;SDS011;10246;50.620;7.232;2022-10-04T07:04:27;6.10;;;4.17;;
20173;SDS011;10246;50.620;7.232;2022-10-04T07:07:08;8.50;;;5.17;;
20173;SDS011;10246;50.620;7.232;2022-10-04T07:09:53;7.33;;;5.10;;
20173;SDS011;10246;50.620;7.232;2022-10-04T07:12:28;7.80;;;4.80;;
20173;SDS011;10246;50.620;7.232;2022-10-04T07:14:59;7.17;;;4.80;;
20173;SDS011;10246;50.620;7.232;2022-10-04T07:17:31;6.13;;;4.83;;
20173;SDS011;10246;50.620;7.232;2022-10-04T07:20:05;6.97;;;4.80;;
20173;SDS011;10246;50.620;7.232;2022-10-04T07:22:45;7.53;;;5.30;;
20173;SDS011;10246;50.620;7.232;2022-10-04T07:25:18;10.20;;;5.60;;
20173;SDS011;10246;50.620;7.232;2022-10-04T07:27:49;9.20;;;6.20;;
20173;SDS011;10246;50.620;7.232;2022-10-04T07:30:51;11.67;;;5.87;;
20173;SDS011;10246;50.620;7.232;2022-10-04T07:33:23;9.10;;;4.80;;
20173;SDS011;10246;50.620;7.232;2022-10-04T07:35:53;7.53;;;5.40;;
20173;SDS011;10246;50.620;7.232;2022-10-04T07:38:31;10.70;;;7.07;;
20173;SDS011;10246;50.620;7.232;2022-10-04T07:41:04;12.63;;;6.90;;
20173;SDS011;10246;50.620;7.232;2022-10-04T07:43:38;9.63;;;6.13;;
20173;SDS011;10246;50.620;7.232;2022-10-04T07:46:13;12.30;;;6.67;;
20173;SDS011;10246;50.620;7.232;2022-10-04T07:48:46;9.90;;;6.57;;
20173;SDS011;10246;50.620;7.232;2022-10-04T07:51:17;12.93;;;7.33;;
20173;SDS011;10246;50.620;7.232;2022-10-04T07:53:50;12.70;;;7.43;;
20173;SDS011;10246;50.620;7.232;2022-10-04T07:56:21;9.90;;;6.70;;
20173;SDS011;10246;50.620;7.232;2022-10-04T07:58:59;11.43;;;8.10;;
20173;SDS011;10246;50.620;7.232;2022-10-04T08:01:37;9.40;;;6.83;;
20173;SDS011;10246;50.620;7.232;2022-10-04T08:04:22;11.03;;;7.30;;
20173;SDS011;10246;50.620;7.232;2022-10-04T08:06:56;11.40;;;8.17;;
20173;SDS011;10246;50.620;7.232;2022-10-04T08:09:30;14.13;;;9.00;;
20173;SDS011;10246;50.620;7.232;2022-10-04T08:12:10;11.37;;;7.23;;
20173;SDS011;10246;50.620;7.232;2022-10-04T08:14:46;12.27;;;6.87;;
20173;SDS011;10246;50.620;7.232;2022-10-04T08:17:25;9.97;;;6.87;;
20173;SDS011;10246;50.620;7.232;2022-10-04T08:20:07;9.43;;;6.67;;
20173;SDS011;10246;50.620;7.232;2022-10-04T08:22:52;8.23;;;6.37;;
20173;SDS011;10246;50.620;7.232;2022-10-04T08:25:27;9.67;;;6.23;;
20173;SDS011;10246;50.620;7.232;2022-10-04T08:28:03;8.50;;;6.07;;
20173;SDS011;10246;50.620;7.232;2022-10-04T08:31:02;9.30;;;6.10;;
20173;SDS011;10246;50.620;7.232;2022-10-04T08:33:44;9.27;;;5.60;;
20173;SDS011;10246;50.620;7.232;2022-10-04T08:36:29;10.30;;;5.63;;
20173;SDS011;10246;50.620;7.232;2022-10-04T08:39:18;8.97;;;6.23;;
20173;SDS011;10246;50.620;7.232;2022-10-04T08:41:59;9.67;;;5.63;;
20173;SDS011;10246;50.620;7.232;2022-10-04T08:44:53;10.37;;;5.33;;
20173;SDS011;10246;50.620;7.232;2022-10-04T08:48:00;8.00;;;5.33;;
20173;SDS011;10246;50.620;7.232;2022-10-04T08:51:07;10.97;;;5.40;;
20173;SDS011;10246;50.620;7.232;2022-10-04T08:57:13;8.70;;;5.20;;
20173;SDS011;10246;50.620;7.232;2022-10-04T09:00:10;5.77;;;5.10;;
20173;SDS011;10246;50.620;7.232;2022-10-04T09:05:47;5.03;;;4.50;;
20173;SDS011;10246;50.620;7.232;2022-10-04T09:08:31;8.13;;;5.27;;
20173;SDS011;10246;50.620;7.232;2022-10-04T09:11:39;8.53;;;5.00;;
20173;SDS011;10246;50.620;7.232;2022-10-04T09:17:27;10.90;;;4.90;;
20173;SDS011;10246;50.620;7.232;2022-10-04T09:20:08;7.47;;;4.90;;
20173;SDS011;10246;50.620;7.232;2022-10-04T09:22:47;7.17;;;4.70;;
20173;SDS011;10246;50.620;7.232;2022-10-04T09:25:27;8.30;;;4.73;;
20173;SDS011;10246;50.620;7.232;2022-10-04T09:28:17;6.17;;;4.07;;
20173;SDS011;10246;50.620;7.232;2022-10-04T09:31:35;7.70;;;4.13;;
20173;SDS011;10246;50.620;7.232;2022-10-04T09:34:33;7.43;;;4.30;;
20173;SDS011;10246;50.620;7.232;2022-10-04T09:37:19;8.20;;;4.27;;
20173;SDS011;10246;50.620;7.232;2022-10-04T09:43:13;9.50;;;4.23;;
20173;SDS011;10246;50.620;7.232;2022-10-04T09:46:02;8.50;;;4.00;;
20173;SDS011;10246;50.620;7.232;2022-10-04T09:48:49;5.33;;;3.57;;
20173;SDS011;10246;50.620;7.232;2022-10-04T09:51:29;7.10;;;3.90;;
20173;SDS011;10246;50.620;7.232;2022-10-04T09:54:34;4.53;;;3.60;;
20173;SDS011;10246;50.620;7.232;2022-10-04T09:57:22;8.13;;;3.80;;
20173;SDS011;10246;50.620;7.232;2022-10-04T10:00:10;7.87;;;3.97;;
20173;SDS011;10246;50.620;7.232;2022-10-04T10:02:52;9.40;;;3.70;;
20173;SDS011;10246;50.620;7.232;2022-10-04T10:05:51;4.37;;;3.00;;
20173;SDS011;10246;50.620;7.232;2022-10-04T10:08:34;3.70;;;3.00;;
20173;SDS011;10246;50.620;7.232;2022-10-04T10:11:11;6.33;;;3.50;;
20173;SDS011;10246;50.620;7.232;2022-10-04T10:14:16;6.10;;;3.53;;
20173;SDS011;10246;50.620;7.232;2022-10-04T10:17:02;7.80;;;3.80;;
20173;SDS011;10246;50.620;7.232;2022-10-04T10:19:46;5.47;;;3.07;;
20173;SDS011;10246;50.620;7.232;2022-10-04T10:22:50;4.30;;;3.40;;
20173;SDS011;10246;50.620;7.232;2022-10-04T10:25:32;5.13;;;3.33;;
20173;SDS011;10246;50.620;7.232;2022-10-04T10:28:26;7.63;;;3.20;;
20173;SDS011;10246;50.620;7.232;2022-10-04T10:31:19;6.33;;;3.50;;
20173;SDS011;10246;50.620;7.232;2022-10-04T10:34:05;5.80;;;3.30;;
20173;SDS011;10246;50.620;7.232;2022-10-04T10:37:03;4.57;;;3.00;;
20173;SDS011;10246;50.620;7.232;2022-10-04T10:42:42;4.13;;;2.67;;
20173;SDS011;10246;50.620;7.232;2022-10-04T10:45:46;5.47;;;2.80;;
20173;SDS011;10246;50.620;7.232;2022-10-04T10:48:29;6.67;;;2.93;;
20173;SDS011;10246;50.620;7.232;2022-10-04T10:51:27;5.67;;;2.80;;
20173;SDS011;10246;50.620;7.232;2022-10-04T10:54:29;9.80;;;3.20;;
20173;SDS011;10246;50.620;7.232;2022-10-04T10:57:19;5.77;;;2.90;;
20173;SDS011;10246;50.620;7.232;2022-10-04T11:00:09;5.43;;;3.17;;
20173;SDS011;10246;50.620;7.232;2022-10-04T11:12:01;3.23;;;2.60;;
20173;SDS011;10246;50.620;7.232;2022-10-04T11:17:59;4.47;;;2.80;;
20173;SDS011;10246;50.620;7.232;2022-10-04T11:20:54;4.33;;;2.50;;
20173;SDS011;10246;50.620;7.232;2022-10-04T11:27:04;4.50;;;2.63;;
20173;SDS011;10246;50.620;7.232;2022-10-04T11:29:44;5.93;;;2.90;;
20173;SDS011;10246;50.620;7.232;2022-10-04T11:33:02;8.13;;;2.90;;
20173;SDS011;10246;50.620;7.232;2022-10-04T11:36:21;4.70;;;2.63;;
20173;SDS011;10246;50.620;7.232;2022-10-04T11:39:15;4.43;;;2.80;;
20173;SDS011;10246;50.620;7.232;2022-10-04T11:41:55;6.07;;;3.53;;
20173;SDS011;10246;50.620;7.232;2022-10-04T11:44:42;7.67;;;3.07;;
20173;SDS011;10246;50.620;7.232;2022-10-04T11:47:28;4.50;;;2.90;;
20173;SDS011;10246;50.620;7.232;2022-10-04T11:50:16;4.13;;;2.70;;
20173;SDS011;10246;50.620;7.232;2022-10-04T11:53:01;5.60;;;2.83;;
20173;SDS011;10246;50.620;7.232;2022-10-04T11:56:00;5.10;;;3.10;;
20173;SDS011;10246;50.620;7.232;2022-10-04T11:58:51;4.83;;;2.70;;
20173;SDS011;10246;50.620;7.232;2022-10-04T12:01:35;5.17;;;2.80;;
20173;SDS011;10246;50.620;7.232;2022-10-04T12:04:22;5.03;;;2.60;;
20173;SDS011;10246;50.620;7.232;2022-10-04T12:09:59;7.67;;;3.03;;
20173;SDS011;10246;50.620;7.232;2022-10-04T12:12:39;4.20;;;2.67;;
20173;SDS011;10246;50.620;7.232;2022-10-04T12:15:42;5.57;;;3.10;;
20173;SDS011;10246;50.620;7.232;2022-10-04T12:18:27;3.60;;;2.53;;
20173;SDS011;10246;50.620;7.232;2022-10-04T12:24:21;3.87;;;2.90;;
20173;SDS011;10246;50.620;7.232;2022-10-04T12:27:18;4.80;;;2.80;;
20173;SDS011;10246;50.620;7.232;2022-10-04T12:30:13;6.40;;;2.60;;
20173;SDS011;10246;50.620;7.232;2022-10-04T12:32:50;6.07;;;3.20;;
20173;SDS011;10246;50.620;7.232;2022-10-04T12:35:27;3.53;;;2.60;;
20173;SDS011;10246;50.620;7.232;2022-10-04T12:40:55;7.83;;;2.67;;
20173;SDS011;10246;50.620;7.232;2022-10-04T12:43:31;3.57;;;2.50;;
20173;SDS011;10246;50.620;7.232;2022-10-04T12:46:06;5.90;;;2.80;;
20173;SDS011;10246;50.620;7.232;2022-10-04T12:48:51;6.00;;;2.60;;
20173;SDS011;10246;50.620;7.232;2022-10-04T12:51:27;5.63;;;2.90;;
20173;SDS011;10246;50.620;7.232;2022-10-04T12:54:07;7.07;;;2.87;;
20173;SDS011;10246;50.620;7.232;2022-10-04T12:56:46;3.67;;;2.57;;
20173;SDS011;10246;50.620;7.232;2022-10-04T12:59:32;5.20;;;2.70;;
20173;SDS011;10246;50.620;7.232;2022-10-04T13:02:18;5.20;;;2.43;;
20173;SDS011;10246;50.620;7.232;2022-10-04T13:04:58;3.10;;;2.50;;
20173;SDS011;10246;50.620;7.232;2022-10-04T13:07:37;3.70;;;2.50;;
20173;SDS011;10246;50.620;7.232;2022-10-04T13:10:19;6.23;;;2.50;;
20173;SDS011;10246;50.620;7.232;2022-10-04T13:13:03;4.87;;;2.40;;
20173;SDS011;10246;50.620;7.232;2022-10-04T13:15:50;4.27;;;2.60;;
20173;SDS011;10246;50.620;7.232;2022-10-04T13:18:24;6.33;;;2.60;;
20173;SDS011;10246;50.620;7.232;2022-10-04T13:20:58;5.70;;;3.17;;
20173;SDS011;10246;50.620;7.232;2022-10-04T13:23:32;4.80;;;2.60;;
20173;SDS011;10246;50.620;7.232;2022-10-04T13:26:09;2.80;;;2.10;;
20173;SDS011;10246;50.620;7.232;2022-10-04T13:28:49;5.10;;;2.47;;
20173;SDS011;10246;50.620;7.232;2022-10-04T13:31:28;4.47;;;2.20;;
20173;SDS011;10246;50.620;7.232;2022-10-04T13:34:04;4.00;;;2.50;;
20173;SDS011;10246;50.620;7.232;2022-10-04T13:36:48;4.67;;;2.50;;
20173;SDS011;10246;50.620;7.232;2022-10-04T13:42:40;4.23;;;2.60;;
20173;SDS011;10246;50.620;7.232;2022-10-04T13:45:27;5.63;;;2.50;;
20173;SDS011;10246;50.620;7.232;2022-10-04T13:51:07;5.60;;;2.93;;
20173;SDS011;10246;50.620;7.232;2022-10-04T13:53:45;3.70;;;2.33;;
20173;SDS011;10246;50.620;7.232;2022-10-04T13:56:55;4.43;;;2.50;;
20173;SDS011;10246;50.620;7.232;2022-10-04T13:59:31;4.63;;;2.60;;
20173;SDS011;10246;50.620;7.232;2022-10-04T14:08:34;3.83;;;2.20;;
20173;SDS011;10246;50.620;7.232;2022-10-04T14:11:32;4.87;;;2.63;;
20173;SDS011;10246;50.620;7.232;2022-10-04T14:30:05;3.93;;;2.07;;
20173;SDS011;10246;50.620;7.232;2022-10-04T14:35:51;5.63;;;2.17;;
20173;SDS011;10246;50.620;7.232;2022-10-04T14:38:37;7.40;;;2.47;;
20173;SDS011;10246;50.620;7.232;2022-10-04T14:41:30;4.47;;;2.40;;
20173;SDS011;10246;50.620;7.232;2022-10-04T14:44:28;4.97;;;2.20;;
20173;SDS011;10246;50.620;7.232;2022-10-04T14:47:28;2.90;;;2.30;;
20173;SDS011;10246;50.620;7.232;2022-10-04T14:50:20;4.17;;;2.50;;
20173;SDS011;10246;50.620;7.232;2022-10-04T14:52:57;4.83;;;2.20;;
20173;SDS011;10246;50.620;7.232;2022-10-04T14:55:36;3.37;;;2.30;;
20173;SDS011;10246;50.620;7.232;2022-10-04T14:58:29;2.70;;;2.20;;
20173;SDS011;10246;50.620;7.232;2022-10-04T15:01:17;3.80;;;2.10;;
20173;SDS011;10246;50.620;7.232;2022-10-04T15:03:59;2.73;;;2.20;;
20173;SDS011;10246;50.620;7.232;2022-10-04T15:06:48;2.57;;;2.20;;
20173;SDS011;10246;50.620;7.232;2022-10-04T15:09:19;3.20;;;2.27;;
20173;SDS011;10246;50.620;7.232;2022-10-04T15:12:15;6.43;;;2.10;;
20173;SDS011;10246;50.620;7.232;2022-10-04T15:15:14;4.17;;;2.40;;
20173;SDS011;10246;50.620;7.232;2022-10-04T15:17:58;3.13;;;2.10;;
20173;SDS011;10246;50.620;7.232;2022-10-04T15:20:29;2.40;;;2.20;;
20173;SDS011;10246;50.620;7.232;2022-10-04T15:23:06;3.97;;;2.90;;
20173;SDS011;10246;50.620;7.232;2022-10-04T15:25:40;4.97;;;2.17;;
20173;SDS011;10246;50.620;7.232;2022-10-04T15:31:04;7.10;;;2.27;;
20173;SDS011;10246;50.620;7.232;2022-10-04T15:33:42;2.47;;;2.07;;
20173;SDS011;10246;50.620;7.232;2022-10-04T15:39:25;3.53;;;2.20;;
20173;SDS011;10246;50.620;7.232;2022-10-04T15:42:06;3.53;;;2.17;;
20173;SDS011;10246;50.620;7.232;2022-10-04T15:44:44;2.93;;;1.93;;
20173;SDS011;10246;50.620;7.232;2022-10-04T15:47:25;4.43;;;2.10;;
20173;SDS011;10246;50.620;7.232;2022-10-04T15:50:02;5.77;;;2.60;;
20173;SDS011;10246;50.620;7.232;2022-10-04T15:55:58;4.57;;;2.40;;
20173;SDS011;10246;50.620;7.232;2022-10-04T15:58:32;2.63;;;2.10;;
20173;SDS011;10246;50.620;7.232;2022-10-04T16:01:17;4.60;;;2.30;;
20173;SDS011;10246;50.620;7.232;2022-10-04T16:04:14;3.03;;;2.60;;
20173;SDS011;10246;50.620;7.232;2022-10-04T16:06:57;3.27;;;2.37;;
20173;SDS011;10246;50.620;7.232;2022-10-04T16:09:34;3.93;;;2.40;;
20173;SDS011;10246;50.620;7.232;2022-10-04T16:12:16;3.50;;;2.37;;
20173;SDS011;10246;50.620;7.232;2022-10-04T16:14:56;5.20;;;2.53;;
20173;SDS011;10246;50.620;7.232;2022-10-04T16:20:35;4.80;;;2.57;;
20173;SDS011;10246;50.620;7.232;2022-10-04T16:23:25;3.93;;;2.50;;
20173;SDS011;10246;50.620;7.232;2022-10-04T16:25:57;4.40;;;2.53;;
20173;SDS011;10246;50.620;7.232;2022-10-04T16:31:39;3.93;;;2.63;;
20173;SDS011;10246;50.620;7.232;2022-10-04T16:37:29;3.83;;;2.40;;
20173;SDS011;10246;50.620;7.232;2022-10-04T16:40:00;3.10;;;2.30;;
20173;SDS011;10246;50.620;7.232;2022-10-04T16:42:46;3.80;;;2.40;;
20173;SDS011;10246;50.620;7.232;2022-10-04T16:45:30;3.30;;;2.40;;
20173;SDS011;10246;50.620;7.232;2022-10-04T16:48:10;6.20;;;2.87;;
20173;SDS011;10246;50.620;7.232;2022-10-04T16:53:49;3.43;;;2.50;;
20173;SDS011;10246;50.620;7.232;2022-10-04T16:56:24;5.37;;;2.83;;
20173;SDS011;10246;50.620;7.232;2022-10-04T16:58:54;4.73;;;2.67;;
20173;SDS011;10246;50.620;7.232;2022-10-04T17:01:32;5.63;;;2.93;;
20173;SDS011;10246;50.620;7.232;2022-10-04T17:04:51;6.07;;;3.03;;
20173;SDS011;10246;50.620;7.232;2022-10-04T17:07:30;4.93;;;2.50;;
20173;SDS011;10246;50.620;7.232;2022-10-04T17:10:14;4.63;;;2.90;;
20173;SDS011;10246;50.620;7.232;2022-10-04T17:12:48;5.47;;;3.93;;
20173;SDS011;10246;50.620;7.232;2022-10-04T17:15:24;8.20;;;5.13;;
20173;SDS011;10246;50.620;7.232;2022-10-04T17:18:10;5.73;;;4.43;;
20173;SDS011;10246;50.620;7.232;2022-10-04T17:20:44;6.97;;;3.97;;
20173;SDS011;10246;50.620;7.232;2022-10-04T17:23:23;7.57;;;4.30;;
20173;SDS011;10246;50.620;7.232;2022-10-04T17:26:07;8.47;;;5.57;;
20173;SDS011;10246;50.620;7.232;2022-10-04T17:28:46;9.03;;;4.90;;
20173;SDS011;10246;50.620;7.232;2022-10-04T17:31:22;5.80;;;3.23;;
20173;SDS011;10246;50.620;7.232;2022-10-04T17:33:55;4.30;;;3.20;;
20173;SDS011;10246;50.620;7.232;2022-10-04T17:36:34;9.10;;;3.40;;
20173;SDS011;10246;50.620;7.232;2022-10-04T17:39:13;4.10;;;3.30;;